sensor_id;sensor_type;location;lat;lon;timestamp;pressure;altitude;pressure_sealevel;temperature;humidity
64853;BME280;56050;55.558;-4.644;2022-10-24T00:02:13;99425.63;;;15.15;74.63
64853;BME280;56050;55.558;-4.644;2022-10-24T00:04:39;99429.09;;;15.15;74.58
64853;BME280;56050;55.558;-4.644;2022-10-24T00:07:06;99428.31;;;15.15;74.34
64853;BME280;56050;55.558;-4.644;2022-10-24T00:09:33;99428.31;;;15.15;74.72
64853;BME280;56050;55.558;-4.644;2022-10-24T00:11:59;99426.03;;;15.13;74.83
64853;BME280;56050;55.558;-4.644;2022-10-24T00:14:25;99425.44;;;15.09;74.42
64853;BME280;56050;55.558;-4.644;2022-10-24T00:16:51;99429.06;;;15.06;74.62
64853;BME280;56050;55.558;-4.644;2022-10-24T00:19:17;99435.84;;;15.02;74.72
64853;BME280;56050;55.558;-4.644;2022-10-24T00:21:42;99425.88;;;14.99;74.99
64853;BME280;56050;55.558;-4.644;2022-10-24T00:24:08;99429.34;;;14.99;74.86
64853;BME280;56050;55.558;-4.644;2022-10-24T00:26:34;99423.91;;;14.99;75.00
64853;BME280;56050;55.558;-4.644;2022-10-24T00:29:00;99412.63;;;15.01;74.88
64853;BME280;56050;55.558;-4.644;2022-10-24T00:31:26;99417.56;;;15.02;74.68
64853;BME280;56050;55.558;-4.644;2022-10-24T00:33:52;99416.69;;;15.05;74.87
64853;BME280;56050;55.558;-4.644;2022-10-24T00:36:20;99425.56;;;15.06;74.58
64853;BME280;56050;55.558;-4.644;2022-10-24T00:38:47;99418.66;;;15.05;74.69
64853;BME280;56050;55.558;-4.644;2022-10-24T00:41:15;99415.19;;;15.04;74.66
64853;BME280;56050;55.558;-4.644;2022-10-24T00:43:40;99415.94;;;15.05;74.82
64853;BME280;56050;55.558;-4.644;2022-10-24T00:46:06;99411.25;;;15.05;74.74
64853;BME280;56050;55.558;-4.644;2022-10-24T00:48:50;99415.03;;;15.08;74.93
64853;BME280;56050;55.558;-4.644;2022-10-24T00:51:26;99409.94;;;15.10;74.57
64853;BME280;56050;55.558;-4.644;2022-10-24T00:54:03;99418.06;;;15.10;74.71
64853;BME280;56050;55.558;-4.644;2022-10-24T00:56:33;99424.25;;;15.10;74.70
64853;BME280;56050;55.558;-4.644;2022-10-24T00:59:03;99426.63;;;15.08;74.72
64853;BME280;56050;55.558;-4.644;2022-10-24T01:01:29;99420.16;;;15.06;74.57
64853;BME280;56050;55.558;-4.644;2022-10-24T01:03:55;99416.69;;;15.05;74.80
64853;BME280;56050;55.558;-4.644;2022-10-24T01:06:34;99423.75;;;15.03;74.73
64853;BME280;56050;55.558;-4.644;2022-10-24T01:09:48;99416.84;;;15.02;74.89
64853;BME280;56050;55.558;-4.644;2022-10-24T01:17:46;99415.75;;;14.90;74.88
64853;BME280;56050;55.558;-4.644;2022-10-24T01:20:38;99406.97;;;14.86;75.00
64853;BME280;56050;55.558;-4.644;2022-10-24T01:29:00;99408.34;;;14.82;74.98
64853;BME280;56050;55.558;-4.644;2022-10-24T01:32:18;99404.84;;;14.81;75.11
64853;BME280;56050;55.558;-4.644;2022-10-24T01:34:32;99395.22;;;14.80;75.01
64853;BME280;56050;55.558;-4.644;2022-10-24T02:07:20;99370.53;;;14.47;74.99
64853;BME280;56050;55.558;-4.644;2022-10-24T02:09:50;99377.00;;;14.41;75.03
64853;BME280;56050;55.558;-4.644;2022-10-24T02:12:18;99376.34;;;14.37;75.31
64853;BME280;56050;55.558;-4.644;2022-10-24T02:14:49;99377.56;;;14.36;75.30
64853;BME280;56050;55.558;-4.644;2022-10-24T02:17:17;99372.59;;;14.34;75.33
64853;BME280;56050;55.558;-4.644;2022-10-24T02:19:43;99374.41;;;14.37;75.33
64853;BME280;56050;55.558;-4.644;2022-10-24T02:24:55;99375.94;;;14.38;75.14
64853;BME280;56050;55.558;-4.644;2022-10-24T02:27:37;99377.41;;;14.39;75.21
64853;BME280;56050;55.558;-4.644;2022-10-24T02:30:06;99364.63;;;14.40;75.06
64853;BME280;56050;55.558;-4.644;2022-10-24T02:32:40;99365.97;;;14.35;75.17
64853;BME280;56050;55.558;-4.644;2022-10-24T02:35:09;99371.19;;;14.30;74.97
64853;BME280;56050;55.558;-4.644;2022-10-24T02:37:38;99375.19;;;14.25;75.38
64853;BME280;56050;55.558;-4.644;2022-10-24T02:40:07;99372.31;;;14.20;75.34
64853;BME280;56050;55.558;-4.644;2022-10-24T02:42:34;99372.59;;;14.12;75.44
64853;BME280;56050;55.558;-4.644;2022-10-24T02:45:02;99372.41;;;14.07;75.22
64853;BME280;56050;55.558;-4.644;2022-10-24T02:47:28;99366.34;;;14.03;75.53
64853;BME280;56050;55.558;-4.644;2022-10-24T02:49:55;99371.91;;;13.99;75.55
64853;BME280;56050;55.558;-4.644;2022-10-24T02:52:21;99370.09;;;13.96;75.56
64853;BME280;56050;55.558;-4.644;2022-10-24T02:54:48;99370.66;;;13.91;75.57
64853;BME280;56050;55.558;-4.644;2022-10-24T02:57:14;99368.06;;;13.88;75.42
64853;BME280;56050;55.558;-4.644;2022-10-24T02:59:40;99368.19;;;13.84;75.67
64853;BME280;56050;55.558;-4.644;2022-10-24T03:02:06;99365.16;;;13.82;75.77
64853;BME280;56050;55.558;-4.644;2022-10-24T03:04:32;99367.44;;;13.84;75.75
64853;BME280;56050;55.558;-4.644;2022-10-24T03:06:57;99367.75;;;13.86;75.75
64853;BME280;56050;55.558;-4.644;2022-10-24T03:09:23;99370.31;;;13.89;75.80
64853;BME280;56050;55.558;-4.644;2022-10-24T03:11:48;99359.50;;;13.89;75.67
64853;BME280;56050;55.558;-4.644;2022-10-24T03:14:14;99365.66;;;13.90;75.58
64853;BME280;56050;55.558;-4.644;2022-10-24T03:16:40;99367.63;;;13.89;75.50
64853;BME280;56050;55.558;-4.644;2022-10-24T03:19:05;99360.72;;;13.88;75.64
64853;BME280;56050;55.558;-4.644;2022-10-24T03:21:31;99356.06;;;13.89;75.52
64853;BME280;56050;55.558;-4.644;2022-10-24T03:23:56;99356.06;;;13.89;75.59
64853;BME280;56050;55.558;-4.644;2022-10-24T03:26:22;99358.44;;;13.87;75.61
64853;BME280;56050;55.558;-4.644;2022-10-24T03:28:47;99358.88;;;13.85;75.47
64853;BME280;56050;55.558;-4.644;2022-10-24T03:31:13;99351.63;;;13.82;75.67
64853;BME280;56050;55.558;-4.644;2022-10-24T03:33:38;99351.19;;;13.84;75.61
64853;BME280;56050;55.558;-4.644;2022-10-24T03:36:04;99350.75;;;13.85;75.36
64853;BME280;56050;55.558;-4.644;2022-10-24T03:38:30;99351.53;;;13.86;75.49
64853;BME280;56050;55.558;-4.644;2022-10-24T03:40:55;99351.19;;;13.84;75.48
64853;BME280;56050;55.558;-4.644;2022-10-24T03:43:21;99356.28;;;13.82;75.61
64853;BME280;56050;55.558;-4.644;2022-10-24T03:45:46;99353.16;;;13.83;75.55
64853;BME280;56050;55.558;-4.644;2022-10-24T03:48:12;99365.78;;;13.86;75.56
64853;BME280;56050;55.558;-4.644;2022-10-24T03:50:38;99360.38;;;13.86;75.37
64853;BME280;56050;55.558;-4.644;2022-10-24T03:53:04;99358.00;;;13.88;75.46
64853;BME280;56050;55.558;-4.644;2022-10-24T03:55:30;99357.13;;;13.91;75.52
64853;BME280;56050;55.558;-4.644;2022-10-24T03:57:55;99357.84;;;13.92;75.38
64853;BME280;56050;55.558;-4.644;2022-10-24T04:00:21;99355.16;;;13.92;75.38
64853;BME280;56050;55.558;-4.644;2022-10-24T04:02:46;99364.03;;;13.92;75.19
64853;BME280;56050;55.558;-4.644;2022-10-24T04:05:14;99361.78;;;13.91;75.31
64853;BME280;56050;55.558;-4.644;2022-10-24T04:07:40;99357.13;;;13.91;75.12
64853;BME280;56050;55.558;-4.644;2022-10-24T04:10:05;99364.47;;;13.91;75.46
64853;BME280;56050;55.558;-4.644;2022-10-24T04:12:32;99359.81;;;13.91;75.28
64853;BME280;56050;55.558;-4.644;2022-10-24T04:14:57;99352.13;;;13.90;75.48
64853;BME280;56050;55.558;-4.644;2022-10-24T04:17:23;99356.78;;;13.89;75.37
64853;BME280;56050;55.558;-4.644;2022-10-24T04:19:48;99359.63;;;13.86;75.54
64853;BME280;56050;55.558;-4.644;2022-10-24T04:22:13;99362.78;;;13.84;75.44
64853;BME280;56050;55.558;-4.644;2022-10-24T04:24:39;99358.88;;;13.85;75.28
64853;BME280;56050;55.558;-4.644;2022-10-24T04:27:08;99355.41;;;13.85;75.23
64853;BME280;56050;55.558;-4.644;2022-10-24T04:29:34;99365.16;;;13.82;75.43
64853;BME280;56050;55.558;-4.644;2022-10-24T04:32:00;99358.69;;;13.80;75.44
64853;BME280;56050;55.558;-4.644;2022-10-24T04:34:25;99360.63;;;13.79;75.38
64853;BME280;56050;55.558;-4.644;2022-10-24T04:36:51;99358.81;;;13.76;75.30
64853;BME280;56050;55.558;-4.644;2022-10-24T04:39:16;99362.38;;;13.73;75.32
64853;BME280;56050;55.558;-4.644;2022-10-24T04:41:44;99359.84;;;13.70;75.47
64853;BME280;56050;55.558;-4.644;2022-10-24T04:44:09;99358.44;;;13.65;75.59
64853;BME280;56050;55.558;-4.644;2022-10-24T04:46:35;99366.22;;;13.63;75.54
64853;BME280;56050;55.558;-4.644;2022-10-24T04:49:01;99360.81;;;13.63;75.61
64853;BME280;56050;55.558;-4.644;2022-10-24T04:51:26;99362.00;;;13.62;75.38
64853;BME280;56050;55.558;-4.644;2022-10-24T04:53:53;99367.41;;;13.62;75.49
64853;BME280;56050;55.558;-4.644;2022-10-24T04:56:18;99364.28;;;13.64;75.76
64853;BME280;56050;55.558;-4.644;2022-10-24T04:58:44;99373.91;;;13.65;75.43
64853;BME280;56050;55.558;-4.644;2022-10-24T05:01:09;99378.44;;;13.68;75.56
64853;BME280;56050;55.558;-4.644;2022-10-24T05:03:35;99377.56;;;13.71;75.38
64853;BME280;56050;55.558;-4.644;2022-10-24T05:06:00;99384.03;;;13.73;75.39
64853;BME280;56050;55.558;-4.644;2022-10-24T05:08:26;99381.97;;;13.77;75.21
64853;BME280;56050;55.558;-4.644;2022-10-24T05:10:52;99383.81;;;13.80;75.26
64853;BME280;56050;55.558;-4.644;2022-10-24T05:13:17;99381.41;;;13.82;75.23
64853;BME280;56050;55.558;-4.644;2022-10-24T05:15:43;99386.72;;;13.86;75.34
64853;BME280;56050;55.558;-4.644;2022-10-24T05:18:08;99388.19;;;13.87;75.27
64853;BME280;56050;55.558;-4.644;2022-10-24T05:20:34;99382.38;;;13.88;75.32
64853;BME280;56050;55.558;-4.644;2022-10-24T05:23:00;99388.84;;;13.91;75.09
64853;BME280;56050;55.558;-4.644;2022-10-24T05:25:25;99392.31;;;13.91;75.20
64853;BME280;56050;55.558;-4.644;2022-10-24T05:27:51;99388.72;;;13.94;75.16
64853;BME280;56050;55.558;-4.644;2022-10-24T05:30:16;99395.63;;;13.95;75.37
64853;BME280;56050;55.558;-4.644;2022-10-24T05:32:42;99396.41;;;13.96;75.18
64853;BME280;56050;55.558;-4.644;2022-10-24T05:35:07;99400.19;;;13.98;75.15
64853;BME280;56050;55.558;-4.644;2022-10-24T05:37:33;99405.91;;;14.00;75.20
64853;BME280;56050;55.558;-4.644;2022-10-24T05:39:59;99398.53;;;14.01;75.10
64853;BME280;56050;55.558;-4.644;2022-10-24T05:42:24;99411.66;;;14.02;75.14
64853;BME280;56050;55.558;-4.644;2022-10-24T05:44:50;99415.09;;;14.03;75.13
64853;BME280;56050;55.558;-4.644;2022-10-24T05:47:15;99418.56;;;14.03;75.12
64853;BME280;56050;55.558;-4.644;2022-10-24T05:49:41;99417.78;;;14.03;75.28
64853;BME280;56050;55.558;-4.644;2022-10-24T05:52:07;99417.06;;;14.02;75.29
64853;BME280;56050;55.558;-4.644;2022-10-24T05:54:33;99416.59;;;14.04;75.37
64853;BME280;56050;55.558;-4.644;2022-10-24T05:56:58;99418.44;;;14.07;75.11
64853;BME280;56050;55.558;-4.644;2022-10-24T05:59:24;99426.09;;;14.08;74.96
64853;BME280;56050;55.558;-4.644;2022-10-24T06:01:49;99425.69;;;14.10;75.08
64853;BME280;56050;55.558;-4.644;2022-10-24T06:04:15;99420.69;;;14.08;75.15
64853;BME280;56050;55.558;-4.644;2022-10-24T06:06:42;99425.38;;;14.08;75.33
64853;BME280;56050;55.558;-4.644;2022-10-24T06:09:09;99427.31;;;14.07;75.34
64853;BME280;56050;55.558;-4.644;2022-10-24T06:11:35;99426.25;;;14.05;75.29
64853;BME280;56050;55.558;-4.644;2022-10-24T06:14:01;99430.16;;;14.04;75.61
64853;BME280;56050;55.558;-4.644;2022-10-24T06:16:27;99427.44;;;14.04;75.35
64853;BME280;56050;55.558;-4.644;2022-10-24T06:18:54;99429.09;;;14.01;75.49
64853;BME280;56050;55.558;-4.644;2022-10-24T06:21:20;99431.13;;;13.97;75.33
64853;BME280;56050;55.558;-4.644;2022-10-24T06:23:45;99428.25;;;13.92;75.55
64853;BME280;56050;55.558;-4.644;2022-10-24T06:26:11;99432.28;;;13.87;75.48
64853;BME280;56050;55.558;-4.644;2022-10-24T06:28:39;99434.47;;;13.80;75.37
64853;BME280;56050;55.558;-4.644;2022-10-24T06:31:04;99434.59;;;13.76;75.52
64853;BME280;56050;55.558;-4.644;2022-10-24T06:33:30;99434.28;;;13.74;75.53
64853;BME280;56050;55.558;-4.644;2022-10-24T06:36:00;99432.00;;;13.73;75.62
64853;BME280;56050;55.558;-4.644;2022-10-24T06:38:25;99424.97;;;13.75;75.51
64853;BME280;56050;55.558;-4.644;2022-10-24T06:40:51;99435.66;;;13.79;75.45
64853;BME280;56050;55.558;-4.644;2022-10-24T06:43:17;99439.44;;;13.81;75.79
64853;BME280;56050;55.558;-4.644;2022-10-24T06:45:44;99433.91;;;13.85;75.59
64853;BME280;56050;55.558;-4.644;2022-10-24T06:48:09;99432.28;;;13.87;75.34
64853;BME280;56050;55.558;-4.644;2022-10-24T06:50:35;99433.47;;;13.86;75.27
64853;BME280;56050;55.558;-4.644;2022-10-24T06:53:01;99433.47;;;13.86;75.45
64853;BME280;56050;55.558;-4.644;2022-10-24T06:55:26;99443.22;;;13.84;75.32
64853;BME280;56050;55.558;-4.644;2022-10-24T06:57:52;99449.09;;;13.82;75.58
64853;BME280;56050;55.558;-4.644;2022-10-24T07:00:18;99449.50;;;13.81;75.61
64853;BME280;56050;55.558;-4.644;2022-10-24T07:02:43;99451.03;;;13.82;75.70
64853;BME280;56050;55.558;-4.644;2022-10-24T07:05:09;99457.63;;;13.81;75.50
64853;BME280;56050;55.558;-4.644;2022-10-24T07:07:37;99461.84;;;13.82;75.56
64853;BME280;56050;55.558;-4.644;2022-10-24T07:10:02;99456.91;;;13.80;75.70
64853;BME280;56050;55.558;-4.644;2022-10-24T07:12:28;99463.50;;;13.79;75.74
64853;BME280;56050;55.558;-4.644;2022-10-24T07:14:53;99471.63;;;13.79;75.86
64853;BME280;56050;55.558;-4.644;2022-10-24T07:17:19;99476.72;;;13.77;75.99
64853;BME280;56050;55.558;-4.644;2022-10-24T07:19:44;99471.72;;;13.76;75.83
64853;BME280;56050;55.558;-4.644;2022-10-24T07:22:10;99480.59;;;13.76;75.89
64853;BME280;56050;55.558;-4.644;2022-10-24T07:24:36;99487.22;;;13.75;75.62
64853;BME280;56050;55.558;-4.644;2022-10-24T07:27:02;99488.72;;;13.76;75.91
64853;BME280;56050;55.558;-4.644;2022-10-24T07:29:28;99486.78;;;13.77;75.67
64853;BME280;56050;55.558;-4.644;2022-10-24T07:31:53;99492.50;;;13.79;75.83
64853;BME280;56050;55.558;-4.644;2022-10-24T07:34:19;99496.75;;;13.80;75.63
64853;BME280;56050;55.558;-4.644;2022-10-24T07:36:44;99501.38;;;13.79;75.47
64853;BME280;56050;55.558;-4.644;2022-10-24T07:39:11;99498.38;;;13.77;75.90
64853;BME280;56050;55.558;-4.644;2022-10-24T07:41:38;99505.84;;;13.73;75.82
64853;BME280;56050;55.558;-4.644;2022-10-24T07:44:05;99512.47;;;13.72;75.99
64853;BME280;56050;55.558;-4.644;2022-10-24T07:46:32;99512.13;;;13.70;75.96
64853;BME280;56050;55.558;-4.644;2022-10-24T07:48:58;99512.56;;;13.69;75.77
64853;BME280;56050;55.558;-4.644;2022-10-24T07:51:23;99519.94;;;13.68;75.65
64853;BME280;56050;55.558;-4.644;2022-10-24T07:53:52;99526.22;;;13.65;75.83
64853;BME280;56050;55.558;-4.644;2022-10-24T07:56:18;99528.16;;;13.65;75.87
64853;BME280;56050;55.558;-4.644;2022-10-24T07:58:45;99530.44;;;13.66;75.78
64853;BME280;56050;55.558;-4.644;2022-10-24T08:01:16;99525.78;;;13.67;75.74
64853;BME280;56050;55.558;-4.644;2022-10-24T08:03:42;99524.56;;;13.68;75.64
64853;BME280;56050;55.558;-4.644;2022-10-24T08:06:10;99517.22;;;13.68;75.82
64853;BME280;56050;55.558;-4.644;2022-10-24T08:08:36;99522.94;;;13.70;75.79
64853;BME280;56050;55.558;-4.644;2022-10-24T08:11:10;99528.69;;;13.72;75.84
64853;BME280;56050;55.558;-4.644;2022-10-24T08:13:36;99522.41;;;13.75;75.79
64853;BME280;56050;55.558;-4.644;2022-10-24T08:16:07;99531.16;;;13.79;75.73
64853;BME280;56050;55.558;-4.644;2022-10-24T08:18:33;99519.78;;;13.84;75.69
64853;BME280;56050;55.558;-4.644;2022-10-24T08:21:00;99527.03;;;13.87;75.64
64853;BME280;56050;55.558;-4.644;2022-10-24T08:23:26;99535.81;;;13.91;75.65
64853;BME280;56050;55.558;-4.644;2022-10-24T08:25:52;99530.38;;;13.91;75.54
64853;BME280;56050;55.558;-4.644;2022-10-24T08:28:17;99536.13;;;13.93;75.50
64853;BME280;56050;55.558;-4.644;2022-10-24T08:30:43;99536.13;;;13.93;75.58
64853;BME280;56050;55.558;-4.644;2022-10-24T08:33:08;99531.88;;;13.92;75.50
64853;BME280;56050;55.558;-4.644;2022-10-24T08:35:34;99533.41;;;13.93;75.55
64853;BME280;56050;55.558;-4.644;2022-10-24T08:37:59;99534.16;;;13.94;75.52
64853;BME280;56050;55.558;-4.644;2022-10-24T08:40:26;99535.66;;;13.95;75.40
64853;BME280;56050;55.558;-4.644;2022-10-24T08:42:52;99539.44;;;13.97;75.85
64853;BME280;56050;55.558;-4.644;2022-10-24T08:45:41;99537.09;;;13.99;75.64
64853;BME280;56050;55.558;-4.644;2022-10-24T08:48:10;99533.81;;;14.04;75.55
64853;BME280;56050;55.558;-4.644;2022-10-24T08:50:40;99548.13;;;14.05;75.39
64853;BME280;56050;55.558;-4.644;2022-10-24T08:53:26;99544.66;;;14.04;75.47
64853;BME280;56050;55.558;-4.644;2022-10-24T08:55:54;99543.78;;;14.07;75.43
64853;BME280;56050;55.558;-4.644;2022-10-24T08:58:36;99550.69;;;14.08;75.38
64853;BME280;56050;55.558;-4.644;2022-10-24T09:01:06;99550.38;;;14.06;75.31
64853;BME280;56050;55.558;-4.644;2022-10-24T09:03:46;99547.78;;;14.03;75.47
64853;BME280;56050;55.558;-4.644;2022-10-24T09:06:39;99551.69;;;14.02;75.41
64853;BME280;56050;55.558;-4.644;2022-10-24T09:09:35;99564.47;;;14.01;75.67
64853;BME280;56050;55.558;-4.644;2022-10-24T09:12:24;99562.06;;;14.03;75.47
64853;BME280;56050;55.558;-4.644;2022-10-24T09:14:55;99564.38;;;14.05;75.66
64853;BME280;56050;55.558;-4.644;2022-10-24T09:20:24;99576.84;;;14.02;75.48
64853;BME280;56050;55.558;-4.644;2022-10-24T09:22:51;99577.25;;;14.01;75.62
64853;BME280;56050;55.558;-4.644;2022-10-24T09:25:21;99581.16;;;14.00;75.64
64853;BME280;56050;55.558;-4.644;2022-10-24T09:27:48;99571.94;;;13.97;75.62
64853;BME280;56050;55.558;-4.644;2022-10-24T09:30:22;99569.22;;;13.97;75.65
64853;BME280;56050;55.558;-4.644;2022-10-24T09:32:49;99571.84;;;14.01;75.59
64853;BME280;56050;55.558;-4.644;2022-10-24T09:35:18;99575.75;;;14.00;75.57
64853;BME280;56050;55.558;-4.644;2022-10-24T09:37:46;99578.00;;;14.01;75.55
64853;BME280;56050;55.558;-4.644;2022-10-24T09:40:29;99578.78;;;14.02;75.74
64853;BME280;56050;55.558;-4.644;2022-10-24T09:46:05;99576.69;;;14.06;75.63
64853;BME280;56050;55.558;-4.644;2022-10-24T09:51:45;99590.13;;;14.09;75.59
64853;BME280;56050;55.558;-4.644;2022-10-24T09:56:45;99586.66;;;14.09;75.81
64853;BME280;56050;55.558;-4.644;2022-10-24T10:01:42;99582.97;;;14.16;75.67
64853;BME280;56050;55.558;-4.644;2022-10-24T10:04:15;99592.16;;;14.18;75.67
64853;BME280;56050;55.558;-4.644;2022-10-24T10:06:48;99600.19;;;14.22;75.62
64853;BME280;56050;55.558;-4.644;2022-10-24T10:09:23;99591.50;;;14.27;75.43
64853;BME280;56050;55.558;-4.644;2022-10-24T10:11:57;99599.94;;;14.29;75.66
64853;BME280;56050;55.558;-4.644;2022-10-24T10:14:25;99602.94;;;14.31;75.51
64853;BME280;56050;55.558;-4.644;2022-10-24T10:17:05;99598.28;;;14.31;75.56
64853;BME280;56050;55.558;-4.644;2022-10-24T10:19:37;99600.63;;;14.33;75.58
64853;BME280;56050;55.558;-4.644;2022-10-24T10:22:05;99595.19;;;14.33;75.47
64853;BME280;56050;55.558;-4.644;2022-10-24T10:26:59;99599.75;;;14.36;75.41
64853;BME280;56050;55.558;-4.644;2022-10-24T10:29:25;99604.25;;;14.39;75.38
64853;BME280;56050;55.558;-4.644;2022-10-24T10:31:59;99596.88;;;14.39;75.43
64853;BME280;56050;55.558;-4.644;2022-10-24T10:34:38;99603.06;;;14.40;75.33
64853;BME280;56050;55.558;-4.644;2022-10-24T10:50:59;99609.53;;;14.55;75.54
64853;BME280;56050;55.558;-4.644;2022-10-24T10:56:41;99618.47;;;14.64;75.41
64853;BME280;56050;55.558;-4.644;2022-10-24T10:59:40;99616.84;;;14.67;75.35
64853;BME280;56050;55.558;-4.644;2022-10-24T11:07:43;99625.69;;;14.80;75.28
64853;BME280;56050;55.558;-4.644;2022-10-24T11:10:17;99630.97;;;14.84;75.24
64853;BME280;56050;55.558;-4.644;2022-10-24T11:12:45;99635.50;;;14.87;75.35
64853;BME280;56050;55.558;-4.644;2022-10-24T11:15:26;99630.72;;;14.91;75.17
64853;BME280;56050;55.558;-4.644;2022-10-24T11:17:58;99628.34;;;14.93;75.19
64853;BME280;56050;55.558;-4.644;2022-10-24T11:20:37;99628.34;;;14.93;75.31
64853;BME280;56050;55.558;-4.644;2022-10-24T11:25:37;99636.59;;;14.89;74.99
64853;BME280;56050;55.558;-4.644;2022-10-24T11:28:15;99630.41;;;14.89;75.31
64853;BME280;56050;55.558;-4.644;2022-10-24T11:30:59;99643.22;;;14.88;75.14
64853;BME280;56050;55.558;-4.644;2022-10-24T11:33:29;99640.06;;;14.90;75.13
64853;BME280;56050;55.558;-4.644;2022-10-24T11:38:45;99649.91;;;14.96;75.07
64853;BME280;56050;55.558;-4.644;2022-10-24T11:43:55;99647.03;;;15.00;75.02
64853;BME280;56050;55.558;-4.644;2022-10-24T11:46:35;99644.34;;;15.00;75.08
64853;BME280;56050;55.558;-4.644;2022-10-24T11:49:24;99648.25;;;14.99;75.29
64853;BME280;56050;55.558;-4.644;2022-10-24T11:52:00;99648.69;;;14.97;75.10
64853;BME280;56050;55.558;-4.644;2022-10-24T11:54:32;99651.41;;;14.97;75.17
64853;BME280;56050;55.558;-4.644;2022-10-24T11:57:08;99651.41;;;14.97;75.11
64853;BME280;56050;55.558;-4.644;2022-10-24T11:59:35;99650.97;;;14.99;75.10
64853;BME280;56050;55.558;-4.644;2022-10-24T12:19:08;99663.59;;;15.14;75.04
64853;BME280;56050;55.558;-4.644;2022-10-24T12:21:43;99656.97;;;15.15;75.08
64853;BME280;56050;55.558;-4.644;2022-10-24T12:24:21;99659.97;;;15.17;75.19
64853;BME280;56050;55.558;-4.644;2022-10-24T12:27:00;99666.47;;;15.20;75.08
64853;BME280;56050;55.558;-4.644;2022-10-24T12:29:28;99666.06;;;15.21;75.07
64853;BME280;56050;55.558;-4.644;2022-10-24T12:31:58;99662.88;;;15.23;74.99
64853;BME280;56050;55.558;-4.644;2022-10-24T12:34:29;99665.91;;;15.25;74.82
64853;BME280;56050;55.558;-4.644;2022-10-24T12:37:09;99662.44;;;15.24;74.85
64853;BME280;56050;55.558;-4.644;2022-10-24T12:39:41;99672.84;;;15.26;74.95
64853;BME280;56050;55.558;-4.644;2022-10-24T12:44:42;99666.66;;;15.25;74.73
64853;BME280;56050;55.558;-4.644;2022-10-24T12:58:02;99676.69;;;15.38;74.89
64853;BME280;56050;55.558;-4.644;2022-10-24T13:00:29;99667.69;;;15.41;74.73
64853;BME280;56050;55.558;-4.644;2022-10-24T13:03:13;99666.03;;;15.43;74.74
64853;BME280;56050;55.558;-4.644;2022-10-24T13:08:34;99678.53;;;15.41;74.81
64853;BME280;56050;55.558;-4.644;2022-10-24T13:19:36;99678.53;;;15.41;74.65
64853;BME280;56050;55.558;-4.644;2022-10-24T13:22:02;99677.78;;;15.40;74.67
64853;BME280;56050;55.558;-4.644;2022-10-24T13:24:37;99682.88;;;15.38;74.95
64853;BME280;56050;55.558;-4.644;2022-10-24T13:34:51;99688.13;;;15.33;74.69
64853;BME280;56050;55.558;-4.644;2022-10-24T13:37:46;99686.03;;;15.37;74.69
64853;BME280;56050;55.558;-4.644;2022-10-24T13:40:16;99687.41;;;15.41;74.60
64853;BME280;56050;55.558;-4.644;2022-10-24T13:42:58;99683.97;;;15.41;74.57
64853;BME280;56050;55.558;-4.644;2022-10-24T13:45:52;99694.34;;;15.42;74.53
64853;BME280;56050;55.558;-4.644;2022-10-24T13:48:30;99698.91;;;15.45;74.59
64853;BME280;56050;55.558;-4.644;2022-10-24T13:51:04;99692.31;;;15.46;74.57
64853;BME280;56050;55.558;-4.644;2022-10-24T13:53:34;99700.44;;;15.46;74.55
64853;BME280;56050;55.558;-4.644;2022-10-24T13:56:08;99686.09;;;15.46;74.30
64853;BME280;56050;55.558;-4.644;2022-10-24T13:58:40;99691.44;;;15.49;74.54
64853;BME280;56050;55.558;-4.644;2022-10-24T14:01:19;99685.66;;;15.47;74.41
64853;BME280;56050;55.558;-4.644;2022-10-24T14:03:46;99682.19;;;15.47;74.59
64853;BME280;56050;55.558;-4.644;2022-10-24T14:06:12;99692.31;;;15.46;74.50
64853;BME280;56050;55.558;-4.644;2022-10-24T14:08:45;99682.31;;;15.43;74.56
64853;BME280;56050;55.558;-4.644;2022-10-24T14:11:18;99687.41;;;15.41;74.60
64853;BME280;56050;55.558;-4.644;2022-10-24T14:13:50;99686.78;;;15.37;74.28
64853;BME280;56050;55.558;-4.644;2022-10-24T14:16:23;99697.47;;;15.32;74.56
64853;BME280;56050;55.558;-4.644;2022-10-24T14:18:50;99695.63;;;15.28;74.38
64853;BME280;56050;55.558;-4.644;2022-10-24T14:21:19;99690.78;;;15.23;74.54
64853;BME280;56050;55.558;-4.644;2022-10-24T14:24:13;99690.91;;;15.20;74.76
64853;BME280;56050;55.558;-4.644;2022-10-24T14:26:39;99694.38;;;15.20;74.61
64853;BME280;56050;55.558;-4.644;2022-10-24T14:29:20;99691.34;;;15.18;74.71
64853;BME280;56050;55.558;-4.644;2022-10-24T14:31:54;99700.69;;;15.17;74.71
64853;BME280;56050;55.558;-4.644;2022-10-24T14:34:21;99698.72;;;15.18;74.71
64853;BME280;56050;55.558;-4.644;2022-10-24T14:36:47;99705.22;;;15.20;74.69
64853;BME280;56050;55.558;-4.644;2022-10-24T14:39:18;99704.78;;;15.22;74.68
64853;BME280;56050;55.558;-4.644;2022-10-24T14:41:49;99700.88;;;15.23;74.76
64853;BME280;56050;55.558;-4.644;2022-10-24T14:44:16;99704.03;;;15.21;74.77
64853;BME280;56050;55.558;-4.644;2022-10-24T14:46:44;99705.53;;;15.22;74.58
64853;BME280;56050;55.558;-4.644;2022-10-24T14:49:29;99715.97;;;15.24;74.59
64853;BME280;56050;55.558;-4.644;2022-10-24T14:52:00;99710.38;;;15.27;74.44
64853;BME280;56050;55.558;-4.644;2022-10-24T14:54:32;99712.22;;;15.30;74.50
64853;BME280;56050;55.558;-4.644;2022-10-24T14:57:01;99715.28;;;15.33;74.52
64853;BME280;56050;55.558;-4.644;2022-10-24T14:59:34;99711.66;;;15.36;74.32
64853;BME280;56050;55.558;-4.644;2022-10-24T15:02:30;99723.25;;;15.36;74.43
64853;BME280;56050;55.558;-4.644;2022-10-24T15:07:45;99725.56;;;15.38;74.13
64853;BME280;56050;55.558;-4.644;2022-10-24T15:12:45;99732.63;;;15.35;74.12
64853;BME280;56050;55.558;-4.644;2022-10-24T15:15:32;99725.22;;;15.36;74.26
64853;BME280;56050;55.558;-4.644;2022-10-24T15:18:06;99729.44;;;15.37;73.92
64853;BME280;56050;55.558;-4.644;2022-10-24T15:20:38;99736.06;;;15.36;74.04
64853;BME280;56050;55.558;-4.644;2022-10-24T15:23:06;99729.16;;;15.35;73.85
64853;BME280;56050;55.558;-4.644;2022-10-24T15:25:41;99739.34;;;15.30;73.83
64853;BME280;56050;55.558;-4.644;2022-10-24T15:28:41;99738.41;;;15.24;73.64
64853;BME280;56050;55.558;-4.644;2022-10-24T15:31:09;99739.63;;;15.23;74.02